sensor_id;sensor_type;location;lat;lon;timestamp;P1;durP1;ratioP1;P2;durP2;ratioP2
3006;SDS011;1513;47.650;10.720;2023-03-03T00:01:13;47.47;;;16.80;;
3006;SDS011;1513;47.650;10.720;2023-03-03T00:03:40;57.10;;;18.20;;
3006;SDS011;1513;47.650;10.720;2023-03-03T00:06:08;51.30;;;17.80;;
3006;SDS011;1513;47.650;10.720;2023-03-03T00:08:36;53.87;;;18.63;;
3006;SDS011;1513;47.650;10.720;2023-03-03T00:11:03;52.67;;;18.27;;
3006;SDS011;1513;47.650;10.720;2023-03-03T00:13:31;60.07;;;17.43;;
3006;SDS011;1513;47.650;10.720;2023-03-03T00:18:53;50.47;;;17.57;;
3006;SDS011;1513;47.650;10.720;2023-03-03T00:21:31;53.13;;;17.47;;
3006;SDS011;1513;47.650;10.720;2023-03-03T00:26:47;51.87;;;18.37;;
3006;SDS011;1513;47.650;10.720;2023-03-03T00:29:35;49.30;;;17.07;;
3006;SDS011;1513;47.650;10.720;2023-03-03T00:34:43;45.80;;;15.80;;
3006;SDS011;1513;47.650;10.720;2023-03-03T00:37:21;47.33;;;16.23;;
3006;SDS011;1513;47.650;10.720;2023-03-03T00:40:17;48.60;;;16.90;;
3006;SDS011;1513;47.650;10.720;2023-03-03T00:42:54;47.67;;;18.70;;
3006;SDS011;1513;47.650;10.720;2023-03-03T00:47:55;49.23;;;16.47;;
3006;SDS011;1513;47.650;10.720;2023-03-03T00:55:24;42.33;;;15.30;;
3006;SDS011;1513;47.650;10.720;2023-03-03T00:57:50;41.13;;;15.60;;
3006;SDS011;1513;47.650;10.720;2023-03-03T01:00:19;41.53;;;14.30;;
3006;SDS011;1513;47.650;10.720;2023-03-03T01:02:46;40.03;;;15.90;;
3006;SDS011;1513;47.650;10.720;2023-03-03T01:05:13;45.83;;;16.20;;
3006;SDS011;1513;47.650;10.720;2023-03-03T01:07:41;42.83;;;15.30;;
3006;SDS011;1513;47.650;10.720;2023-03-03T01:10:08;47.20;;;18.20;;
3006;SDS011;1513;47.650;10.720;2023-03-03T01:12:34;49.33;;;17.43;;
3006;SDS011;1513;47.650;10.720;2023-03-03T01:15:04;46.53;;;16.63;;
3006;SDS011;1513;47.650;10.720;2023-03-03T01:17:31;43.37;;;15.07;;
3006;SDS011;1513;47.650;10.720;2023-03-03T01:19:58;46.47;;;17.10;;
3006;SDS011;1513;47.650;10.720;2023-03-03T01:22:25;49.77;;;17.80;;
3006;SDS011;1513;47.650;10.720;2023-03-03T01:24:51;50.43;;;17.93;;
3006;SDS011;1513;47.650;10.720;2023-03-03T01:27:17;38.93;;;15.63;;
3006;SDS011;1513;47.650;10.720;2023-03-03T01:29:44;40.57;;;16.40;;
3006;SDS011;1513;47.650;10.720;2023-03-03T01:32:10;44.17;;;17.87;;
3006;SDS011;1513;47.650;10.720;2023-03-03T01:34:36;42.70;;;16.20;;
3006;SDS011;1513;47.650;10.720;2023-03-03T01:37:02;54.30;;;16.83;;
3006;SDS011;1513;47.650;10.720;2023-03-03T01:39:29;45.73;;;16.60;;
3006;SDS011;1513;47.650;10.720;2023-03-03T01:41:55;40.27;;;15.57;;
3006;SDS011;1513;47.650;10.720;2023-03-03T01:44:21;53.07;;;18.00;;
3006;SDS011;1513;47.650;10.720;2023-03-03T01:49:33;47.70;;;16.97;;
3006;SDS011;1513;47.650;10.720;2023-03-03T01:52:02;60.33;;;18.73;;
3006;SDS011;1513;47.650;10.720;2023-03-03T01:54:38;54.27;;;17.23;;
3006;SDS011;1513;47.650;10.720;2023-03-03T01:57:11;52.03;;;16.73;;
3006;SDS011;1513;47.650;10.720;2023-03-03T01:59:42;54.67;;;16.87;;
3006;SDS011;1513;47.650;10.720;2023-03-03T02:02:11;46.10;;;16.53;;
3006;SDS011;1513;47.650;10.720;2023-03-03T02:04:37;49.90;;;18.83;;
3006;SDS011;1513;47.650;10.720;2023-03-03T02:07:05;50.33;;;17.60;;
3006;SDS011;1513;47.650;10.720;2023-03-03T02:12:07;50.23;;;17.63;;
3006;SDS011;1513;47.650;10.720;2023-03-03T02:14:37;46.50;;;16.73;;
3006;SDS011;1513;47.650;10.720;2023-03-03T02:17:04;55.47;;;17.93;;
3006;SDS011;1513;47.650;10.720;2023-03-03T02:19:38;43.87;;;15.97;;
3006;SDS011;1513;47.650;10.720;2023-03-03T02:22:10;46.47;;;18.03;;
3006;SDS011;1513;47.650;10.720;2023-03-03T02:24:59;46.90;;;17.57;;
3006;SDS011;1513;47.650;10.720;2023-03-03T02:27:25;50.23;;;16.70;;
3006;SDS011;1513;47.650;10.720;2023-03-03T02:29:52;38.87;;;15.00;;
3006;SDS011;1513;47.650;10.720;2023-03-03T02:32:19;43.60;;;14.83;;
3006;SDS011;1513;47.650;10.720;2023-03-03T02:34:49;48.37;;;16.37;;
3006;SDS011;1513;47.650;10.720;2023-03-03T02:37:16;52.70;;;17.40;;
3006;SDS011;1513;47.650;10.720;2023-03-03T02:39:43;45.27;;;16.20;;
3006;SDS011;1513;47.650;10.720;2023-03-03T02:48:39;45.77;;;14.50;;
3006;SDS011;1513;47.650;10.720;2023-03-03T02:51:05;45.67;;;15.30;;
3006;SDS011;1513;47.650;10.720;2023-03-03T02:53:32;41.00;;;15.07;;
3006;SDS011;1513;47.650;10.720;2023-03-03T02:55:58;53.87;;;15.17;;
3006;SDS011;1513;47.650;10.720;2023-03-03T02:58:24;45.90;;;16.37;;
3006;SDS011;1513;47.650;10.720;2023-03-03T03:00:51;38.50;;;14.20;;
3006;SDS011;1513;47.650;10.720;2023-03-03T03:03:21;40.83;;;15.47;;
3006;SDS011;1513;47.650;10.720;2023-03-03T03:05:48;39.50;;;14.70;;
3006;SDS011;1513;47.650;10.720;2023-03-03T03:08:17;44.30;;;16.00;;
3006;SDS011;1513;47.650;10.720;2023-03-03T03:10:44;39.90;;;15.50;;
3006;SDS011;1513;47.650;10.720;2023-03-03T03:13:11;52.13;;;17.50;;
3006;SDS011;1513;47.650;10.720;2023-03-03T03:15:37;48.07;;;15.03;;
3006;SDS011;1513;47.650;10.720;2023-03-03T03:18:04;44.97;;;17.97;;
3006;SDS011;1513;47.650;10.720;2023-03-03T03:20:35;42.70;;;15.27;;
3006;SDS011;1513;47.650;10.720;2023-03-03T03:23:02;49.00;;;17.23;;
3006;SDS011;1513;47.650;10.720;2023-03-03T03:25:28;48.87;;;16.70;;
3006;SDS011;1513;47.650;10.720;2023-03-03T03:27:54;49.20;;;17.23;;
3006;SDS011;1513;47.650;10.720;2023-03-03T03:30:21;46.07;;;17.13;;
3006;SDS011;1513;47.650;10.720;2023-03-03T03:32:48;52.23;;;17.40;;
3006;SDS011;1513;47.650;10.720;2023-03-03T03:35:14;52.03;;;17.87;;
3006;SDS011;1513;47.650;10.720;2023-03-03T03:37:42;49.80;;;17.50;;
3006;SDS011;1513;47.650;10.720;2023-03-03T03:40:10;40.23;;;17.10;;
3006;SDS011;1513;47.650;10.720;2023-03-03T03:42:36;44.47;;;17.40;;
3006;SDS011;1513;47.650;10.720;2023-03-03T03:45:04;60.87;;;18.10;;
3006;SDS011;1513;47.650;10.720;2023-03-03T03:47:31;53.10;;;18.23;;
3006;SDS011;1513;47.650;10.720;2023-03-03T03:49:58;40.30;;;15.73;;
3006;SDS011;1513;47.650;10.720;2023-03-03T03:52:24;52.30;;;19.23;;
3006;SDS011;1513;47.650;10.720;2023-03-03T03:54:51;41.77;;;16.70;;
3006;SDS011;1513;47.650;10.720;2023-03-03T03:57:17;43.07;;;15.30;;
3006;SDS011;1513;47.650;10.720;2023-03-03T03:59:44;41.10;;;16.07;;
3006;SDS011;1513;47.650;10.720;2023-03-03T04:02:10;42.73;;;15.97;;
3006;SDS011;1513;47.650;10.720;2023-03-03T04:04:37;44.97;;;16.90;;
3006;SDS011;1513;47.650;10.720;2023-03-03T04:07:03;44.83;;;16.60;;
3006;SDS011;1513;47.650;10.720;2023-03-03T04:09:30;43.27;;;15.40;;
3006;SDS011;1513;47.650;10.720;2023-03-03T04:11:57;38.83;;;15.60;;
3006;SDS011;1513;47.650;10.720;2023-03-03T04:14:24;40.90;;;15.63;;
3006;SDS011;1513;47.650;10.720;2023-03-03T04:16:51;39.53;;;16.60;;
3006;SDS011;1513;47.650;10.720;2023-03-03T04:19:18;45.07;;;16.53;;
3006;SDS011;1513;47.650;10.720;2023-03-03T04:21:46;38.70;;;14.63;;
3006;SDS011;1513;47.650;10.720;2023-03-03T04:24:13;38.50;;;15.73;;
3006;SDS011;1513;47.650;10.720;2023-03-03T04:26:39;40.13;;;16.60;;
3006;SDS011;1513;47.650;10.720;2023-03-03T04:29:07;45.30;;;15.80;;
3006;SDS011;1513;47.650;10.720;2023-03-03T04:31:33;39.40;;;15.83;;
3006;SDS011;1513;47.650;10.720;2023-03-03T04:34:00;39.80;;;15.50;;
3006;SDS011;1513;47.650;10.720;2023-03-03T04:36:27;43.30;;;16.13;;
3006;SDS011;1513;47.650;10.720;2023-03-03T04:38:54;49.07;;;18.33;;
3006;SDS011;1513;47.650;10.720;2023-03-03T04:41:21;89.63;;;32.63;;
3006;SDS011;1513;47.650;10.720;2023-03-03T04:43:48;43.27;;;17.80;;
3006;SDS011;1513;47.650;10.720;2023-03-03T04:46:15;36.30;;;15.57;;
3006;SDS011;1513;47.650;10.720;2023-03-03T04:48:41;32.93;;;14.10;;
3006;SDS011;1513;47.650;10.720;2023-03-03T04:51:09;35.20;;;15.53;;
3006;SDS011;1513;47.650;10.720;2023-03-03T04:53:36;31.70;;;13.97;;
3006;SDS011;1513;47.650;10.720;2023-03-03T04:56:04;38.27;;;15.07;;
3006;SDS011;1513;47.650;10.720;2023-03-03T04:58:31;35.53;;;15.90;;
3006;SDS011;1513;47.650;10.720;2023-03-03T05:00:57;36.50;;;15.07;;
3006;SDS011;1513;47.650;10.720;2023-03-03T05:03:25;33.10;;;14.30;;
3006;SDS011;1513;47.650;10.720;2023-03-03T05:05:52;39.73;;;14.60;;
3006;SDS011;1513;47.650;10.720;2023-03-03T05:08:18;46.63;;;15.90;;
3006;SDS011;1513;47.650;10.720;2023-03-03T05:10:44;33.97;;;13.30;;
3006;SDS011;1513;47.650;10.720;2023-03-03T05:13:11;44.77;;;14.80;;
3006;SDS011;1513;47.650;10.720;2023-03-03T05:15:39;44.00;;;15.10;;
3006;SDS011;1513;47.650;10.720;2023-03-03T05:18:05;41.50;;;15.20;;
3006;SDS011;1513;47.650;10.720;2023-03-03T05:20:32;50.53;;;16.60;;
3006;SDS011;1513;47.650;10.720;2023-03-03T05:22:58;38.43;;;15.50;;
3006;SDS011;1513;47.650;10.720;2023-03-03T05:25:25;51.70;;;16.17;;
3006;SDS011;1513;47.650;10.720;2023-03-03T05:27:52;38.57;;;14.20;;
3006;SDS011;1513;47.650;10.720;2023-03-03T05:30:19;35.40;;;14.33;;
3006;SDS011;1513;47.650;10.720;2023-03-03T05:32:45;50.53;;;15.80;;
3006;SDS011;1513;47.650;10.720;2023-03-03T05:35:11;43.83;;;16.90;;
3006;SDS011;1513;47.650;10.720;2023-03-03T05:37:38;46.00;;;17.80;;
3006;SDS011;1513;47.650;10.720;2023-03-03T05:40:07;37.97;;;15.90;;
3006;SDS011;1513;47.650;10.720;2023-03-03T05:42:33;54.97;;;16.40;;
3006;SDS011;1513;47.650;10.720;2023-03-03T05:45:00;45.53;;;15.40;;
3006;SDS011;1513;47.650;10.720;2023-03-03T05:47:26;22.13;;;8.60;;
3006;SDS011;1513;47.650;10.720;2023-03-03T05:49:53;36.13;;;13.30;;
3006;SDS011;1513;47.650;10.720;2023-03-03T05:52:19;48.73;;;17.20;;
3006;SDS011;1513;47.650;10.720;2023-03-03T05:54:46;41.10;;;14.40;;
3006;SDS011;1513;47.650;10.720;2023-03-03T05:57:12;50.07;;;17.07;;
3006;SDS011;1513;47.650;10.720;2023-03-03T05:59:38;39.53;;;14.47;;
3006;SDS011;1513;47.650;10.720;2023-03-03T06:02:05;39.80;;;16.50;;
3006;SDS011;1513;47.650;10.720;2023-03-03T06:04:32;45.90;;;16.70;;
3006;SDS011;1513;47.650;10.720;2023-03-03T06:06:58;45.37;;;16.27;;
3006;SDS011;1513;47.650;10.720;2023-03-03T06:09:24;46.23;;;16.63;;
3006;SDS011;1513;47.650;10.720;2023-03-03T06:11:51;40.63;;;15.47;;
3006;SDS011;1513;47.650;10.720;2023-03-03T06:14:18;41.60;;;15.80;;
3006;SDS011;1513;47.650;10.720;2023-03-03T06:16:46;38.93;;;16.67;;
3006;SDS011;1513;47.650;10.720;2023-03-03T06:19:12;39.80;;;15.50;;
3006;SDS011;1513;47.650;10.720;2023-03-03T06:21:39;42.83;;;16.17;;
3006;SDS011;1513;47.650;10.720;2023-03-03T06:24:06;41.07;;;16.70;;
3006;SDS011;1513;47.650;10.720;2023-03-03T06:26:32;41.80;;;15.80;;
3006;SDS011;1513;47.650;10.720;2023-03-03T06:28:59;39.40;;;15.03;;
3006;SDS011;1513;47.650;10.720;2023-03-03T06:31:26;38.13;;;15.30;;
3006;SDS011;1513;47.650;10.720;2023-03-03T06:33:53;45.80;;;17.10;;
3006;SDS011;1513;47.650;10.720;2023-03-03T06:36:19;38.23;;;15.57;;
3006;SDS011;1513;47.650;10.720;2023-03-03T06:38:46;49.53;;;20.13;;
3006;SDS011;1513;47.650;10.720;2023-03-03T06:41:12;50.63;;;18.17;;
3006;SDS011;1513;47.650;10.720;2023-03-03T06:43:39;48.60;;;17.93;;
3006;SDS011;1513;47.650;10.720;2023-03-03T06:46:05;50.03;;;19.37;;
3006;SDS011;1513;47.650;10.720;2023-03-03T06:48:32;47.27;;;17.57;;
3006;SDS011;1513;47.650;10.720;2023-03-03T06:50:58;50.43;;;18.33;;
3006;SDS011;1513;47.650;10.720;2023-03-03T06:53:26;52.97;;;21.80;;
3006;SDS011;1513;47.650;10.720;2023-03-03T06:55:55;61.00;;;21.67;;
3006;SDS011;1513;47.650;10.720;2023-03-03T06:58:23;52.13;;;23.10;;
3006;SDS011;1513;47.650;10.720;2023-03-03T07:00:55;60.60;;;27.03;;
3006;SDS011;1513;47.650;10.720;2023-03-03T07:03:23;49.47;;;18.90;;
3006;SDS011;1513;47.650;10.720;2023-03-03T07:05:54;40.87;;;16.87;;
3006;SDS011;1513;47.650;10.720;2023-03-03T07:08:21;40.87;;;16.83;;
3006;SDS011;1513;47.650;10.720;2023-03-03T07:10:49;51.10;;;19.07;;
3006;SDS011;1513;47.650;10.720;2023-03-03T07:15:47;38.83;;;17.50;;
3006;SDS011;1513;47.650;10.720;2023-03-03T07:18:34;46.53;;;20.40;;
3006;SDS011;1513;47.650;10.720;2023-03-03T07:23:48;43.43;;;18.00;;
3006;SDS011;1513;47.650;10.720;2023-03-03T07:26:19;44.10;;;17.30;;
3006;SDS011;1513;47.650;10.720;2023-03-03T07:31:46;47.07;;;18.67;;
3006;SDS011;1513;47.650;10.720;2023-03-03T07:34:15;45.73;;;17.90;;
3006;SDS011;1513;47.650;10.720;2023-03-03T07:37:01;47.17;;;16.90;;
3006;SDS011;1513;47.650;10.720;2023-03-03T07:39:38;38.10;;;15.93;;
3006;SDS011;1513;47.650;10.720;2023-03-03T07:42:25;40.73;;;15.97;;
3006;SDS011;1513;47.650;10.720;2023-03-03T07:47:55;59.83;;;22.50;;
3006;SDS011;1513;47.650;10.720;2023-03-03T07:50:42;50.43;;;19.60;;
3006;SDS011;1513;47.650;10.720;2023-03-03T07:53:42;45.80;;;19.53;;
3006;SDS011;1513;47.650;10.720;2023-03-03T07:56:04;37.87;;;15.47;;
3006;SDS011;1513;47.650;10.720;2023-03-03T07:58:58;43.17;;;17.67;;
3006;SDS011;1513;47.650;10.720;2023-03-03T08:03:51;43.27;;;17.93;;
3006;SDS011;1513;47.650;10.720;2023-03-03T08:08:54;43.83;;;17.30;;
3006;SDS011;1513;47.650;10.720;2023-03-03T08:11:26;49.63;;;18.50;;
3006;SDS011;1513;47.650;10.720;2023-03-03T08:13:53;42.43;;;17.63;;
3006;SDS011;1513;47.650;10.720;2023-03-03T08:16:36;41.53;;;18.00;;
3006;SDS011;1513;47.650;10.720;2023-03-03T08:19:03;39.43;;;15.53;;
3006;SDS011;1513;47.650;10.720;2023-03-03T08:21:30;40.37;;;16.00;;
3006;SDS011;1513;47.650;10.720;2023-03-03T08:23:56;40.70;;;16.57;;
3006;SDS011;1513;47.650;10.720;2023-03-03T08:26:23;46.90;;;17.57;;
3006;SDS011;1513;47.650;10.720;2023-03-03T08:28:50;73.80;;;26.53;;
3006;SDS011;1513;47.650;10.720;2023-03-03T08:31:17;53.97;;;20.77;;
3006;SDS011;1513;47.650;10.720;2023-03-03T08:33:43;43.03;;;17.03;;
3006;SDS011;1513;47.650;10.720;2023-03-03T08:36:10;56.83;;;19.90;;
3006;SDS011;1513;47.650;10.720;2023-03-03T08:38:37;50.70;;;22.50;;
3006;SDS011;1513;47.650;10.720;2023-03-03T08:41:04;77.00;;;28.30;;
3006;SDS011;1513;47.650;10.720;2023-03-03T08:43:30;59.63;;;22.80;;
3006;SDS011;1513;47.650;10.720;2023-03-03T08:45:58;50.63;;;19.07;;
3006;SDS011;1513;47.650;10.720;2023-03-03T08:48:26;50.93;;;19.30;;
3006;SDS011;1513;47.650;10.720;2023-03-03T08:50:52;44.37;;;18.47;;
3006;SDS011;1513;47.650;10.720;2023-03-03T08:53:19;50.10;;;20.43;;
3006;SDS011;1513;47.650;10.720;2023-03-03T08:55:47;46.20;;;18.23;;
3006;SDS011;1513;47.650;10.720;2023-03-03T08:58:14;45.70;;;18.90;;
3006;SDS011;1513;47.650;10.720;2023-03-03T09:00:41;45.20;;;18.40;;
3006;SDS011;1513;47.650;10.720;2023-03-03T09:03:08;44.20;;;17.80;;
3006;SDS011;1513;47.650;10.720;2023-03-03T09:05:35;44.50;;;18.87;;
3006;SDS011;1513;47.650;10.720;2023-03-03T09:08:02;42.23;;;18.80;;
3006;SDS011;1513;47.650;10.720;2023-03-03T09:10:29;43.03;;;16.17;;
3006;SDS011;1513;47.650;10.720;2023-03-03T09:12:57;39.63;;;17.10;;
3006;SDS011;1513;47.650;10.720;2023-03-03T09:15:29;45.40;;;19.73;;
3006;SDS011;1513;47.650;10.720;2023-03-03T09:17:57;42.37;;;17.47;;
3006;SDS011;1513;47.650;10.720;2023-03-03T09:20:30;45.83;;;19.53;;
3006;SDS011;1513;47.650;10.720;2023-03-03T09:26:22;44.07;;;19.57;;
3006;SDS011;1513;47.650;10.720;2023-03-03T09:28:53;44.50;;;19.03;;
3006;SDS011;1513;47.650;10.720;2023-03-03T09:31:25;44.33;;;18.43;;
3006;SDS011;1513;47.650;10.720;2023-03-03T09:33:55;41.00;;;17.17;;
3006;SDS011;1513;47.650;10.720;2023-03-03T09:36:24;42.57;;;17.67;;
3006;SDS011;1513;47.650;10.720;2023-03-03T09:38:52;40.87;;;17.43;;
3006;SDS011;1513;47.650;10.720;2023-03-03T09:41:27;45.93;;;18.87;;
3006;SDS011;1513;47.650;10.720;2023-03-03T09:52:36;48.17;;;19.93;;
3006;SDS011;1513;47.650;10.720;2023-03-03T10:00:26;41.90;;;18.53;;
3006;SDS011;1513;47.650;10.720;2023-03-03T10:17:35;56.63;;;22.00;;
3006;SDS011;1513;47.650;10.720;2023-03-03T10:26:09;59.63;;;21.10;;
3006;SDS011;1513;47.650;10.720;2023-03-03T10:32:09;54.73;;;22.80;;
3006;SDS011;1513;47.650;10.720;2023-03-03T10:40:25;51.70;;;22.40;;
3006;SDS011;1513;47.650;10.720;2023-03-03T10:48:35;58.47;;;22.50;;
3006;SDS011;1513;47.650;10.720;2023-03-03T11:08:00;53.60;;;21.90;;
3006;SDS011;1513;47.650;10.720;2023-03-03T11:10:50;54.57;;;21.10;;
3006;SDS011;1513;47.650;10.720;2023-03-03T11:13:44;56.23;;;22.73;;
3006;SDS011;1513;47.650;10.720;2023-03-03T11:27:08;58.97;;;23.37;;
3006;SDS011;1513;47.650;10.720;2023-03-03T11:30:02;62.90;;;23.93;;
3006;SDS011;1513;47.650;10.720;2023-03-03T11:32:38;59.37;;;26.50;;
3006;SDS011;1513;47.650;10.720;2023-03-03T11:40:50;71.13;;;26.70;;
3006;SDS011;1513;47.650;10.720;2023-03-03T11:43:44;69.17;;;25.20;;
3006;SDS011;1513;47.650;10.720;2023-03-03T11:46:12;63.20;;;25.70;;
3006;SDS011;1513;47.650;10.720;2023-03-03T11:48:46;55.87;;;22.63;;
3006;SDS011;1513;47.650;10.720;2023-03-03T11:51:24;59.20;;;23.07;;
3006;SDS011;1513;47.650;10.720;2023-03-03T11:56:44;63.77;;;23.90;;
3006;SDS011;1513;47.650;10.720;2023-03-03T11:59:18;61.03;;;23.90;;
3006;SDS011;1513;47.650;10.720;2023-03-03T12:02:04;65.60;;;24.10;;
3006;SDS011;1513;47.650;10.720;2023-03-03T12:05:08;53.30;;;21.90;;
3006;SDS011;1513;47.650;10.720;2023-03-03T12:07:55;56.27;;;23.17;;
3006;SDS011;1513;47.650;10.720;2023-03-03T12:15:52;57.57;;;23.80;;
3006;SDS011;1513;47.650;10.720;2023-03-03T12:27:14;56.53;;;23.80;;
3006;SDS011;1513;47.650;10.720;2023-03-03T12:32:31;64.30;;;26.50;;
3006;SDS011;1513;47.650;10.720;2023-03-03T12:40:33;55.43;;;24.53;;
3006;SDS011;1513;47.650;10.720;2023-03-03T12:45:48;61.20;;;23.60;;
3006;SDS011;1513;47.650;10.720;2023-03-03T12:48:24;60.27;;;23.87;;
3006;SDS011;1513;47.650;10.720;2023-03-03T12:59:04;60.90;;;23.87;;
3006;SDS011;1513;47.650;10.720;2023-03-03T13:09:39;65.83;;;26.27;;
3006;SDS011;1513;47.650;10.720;2023-03-03T13:14:55;66.77;;;25.27;;
3006;SDS011;1513;47.650;10.720;2023-03-03T13:21:03;57.13;;;25.77;;
3006;SDS011;1513;47.650;10.720;2023-03-03T13:24:14;77.33;;;26.83;;
3006;SDS011;1513;47.650;10.720;2023-03-03T13:26:28;75.60;;;27.93;;
3006;SDS011;1513;47.650;10.720;2023-03-03T13:31:54;66.00;;;26.37;;
3006;SDS011;1513;47.650;10.720;2023-03-03T13:34:33;67.07;;;26.73;;
3006;SDS011;1513;47.650;10.720;2023-03-03T13:37:44;75.13;;;29.67;;
3006;SDS011;1513;47.650;10.720;2023-03-03T13:45:22;67.50;;;25.20;;
3006;SDS011;1513;47.650;10.720;2023-03-03T13:51:02;72.47;;;27.10;;
3006;SDS011;1513;47.650;10.720;2023-03-03T13:54:25;70.90;;;27.73;;
3006;SDS011;1513;47.650;10.720;2023-03-03T13:59:33;72.33;;;28.70;;
3006;SDS011;1513;47.650;10.720;2023-03-03T14:02:36;66.03;;;26.77;;
3006;SDS011;1513;47.650;10.720;2023-03-03T14:07:59;76.57;;;28.00;;
3006;SDS011;1513;47.650;10.720;2023-03-03T14:10:46;66.17;;;28.30;;
3006;SDS011;1513;47.650;10.720;2023-03-03T14:13:24;77.37;;;31.00;;
3006;SDS011;1513;47.650;10.720;2023-03-03T14:15:55;76.10;;;29.33;;
3006;SDS011;1513;47.650;10.720;2023-03-03T14:18:27;80.47;;;28.63;;
3006;SDS011;1513;47.650;10.720;2023-03-03T14:21:12;71.93;;;29.37;;
3006;SDS011;1513;47.650;10.720;2023-03-03T14:26:28;74.70;;;29.30;;
3006;SDS011;1513;47.650;10.720;2023-03-03T14:32:00;81.33;;;29.50;;
3006;SDS011;1513;47.650;10.720;2023-03-03T14:34:44;70.30;;;28.07;;
3006;SDS011;1513;47.650;10.720;2023-03-03T14:40:12;79.37;;;29.87;;
3006;SDS011;1513;47.650;10.720;2023-03-03T14:43:01;80.00;;;31.70;;
3006;SDS011;1513;47.650;10.720;2023-03-03T14:45:31;79.77;;;31.07;;
3006;SDS011;1513;47.650;10.720;2023-03-03T14:48:44;84.53;;;31.60;;
3006;SDS011;1513;47.650;10.720;2023-03-03T14:53:30;83.73;;;31.17;;
3006;SDS011;1513;47.650;10.720;2023-03-03T14:59:37;86.90;;;30.17;;
3006;SDS011;1513;47.650;10.720;2023-03-03T15:01:38;87.70;;;31.90;;
3006;SDS011;1513;47.650;10.720;2023-03-03T15:04:09;93.70;;;32.17;;
3006;SDS011;1513;47.650;10.720;2023-03-03T15:06:49;79.73;;;31.97;;
3006;SDS011;1513;47.650;10.720;2023-03-03T15:09:23;85.30;;;31.47;;
3006;SDS011;1513;47.650;10.720;2023-03-03T15:11:53;87.20;;;32.47;;
3006;SDS011;1513;47.650;10.720;2023-03-03T15:14:28;83.77;;;33.70;;
3006;SDS011;1513;47.650;10.720;2023-03-03T15:17:12;83.00;;;30.97;;
3006;SDS011;1513;47.650;10.720;2023-03-03T15:22:28;79.73;;;30.90;;
3006;SDS011;1513;47.650;10.720;2023-03-03T15:28:21;81.23;;;31.60;;
3006;SDS011;1513;47.650;10.720;2023-03-03T15:36:32;93.10;;;32.23;;
3006;SDS011;1513;47.650;10.720;2023-03-03T15:44:32;93.10;;;32.03;;
3006;SDS011;1513;47.650;10.720;2023-03-03T15:57:49;92.47;;;32.23;;
3006;SDS011;1513;47.650;10.720;2023-03-03T16:03:37;87.00;;;33.47;;
3006;SDS011;1513;47.650;10.720;2023-03-03T16:17:12;87.40;;;31.63;;
3006;SDS011;1513;47.650;10.720;2023-03-03T16:19:55;93.00;;;32.50;;
3006;SDS011;1513;47.650;10.720;2023-03-03T16:31:00;98.10;;;34.47;;
3006;SDS011;1513;47.650;10.720;2023-03-03T16:33:36;112.73;;;38.37;;
3006;SDS011;1513;47.650;10.720;2023-03-03T16:36:17;115.03;;;40.80;;
3006;SDS011;1513;47.650;10.720;2023-03-03T16:38:53;129.20;;;42.70;;
3006;SDS011;1513;47.650;10.720;2023-03-03T16:41:28;126.77;;;43.03;;
3006;SDS011;1513;47.650;10.720;2023-03-03T16:44:29;111.60;;;38.53;;
3006;SDS011;1513;47.650;10.720;2023-03-03T16:49:52;193.80;;;56.20;;
3006;SDS011;1513;47.650;10.720;2023-03-03T16:52:24;124.73;;;44.67;;
3006;SDS011;1513;47.650;10.720;2023-03-03T16:54:55;140.93;;;48.60;;
3006;SDS011;1513;47.650;10.720;2023-03-03T17:07:41;117.80;;;40.07;;
3006;SDS011;1513;47.650;10.720;2023-03-03T17:10:26;110.00;;;39.57;;
3006;SDS011;1513;47.650;10.720;2023-03-03T17:20:49;123.13;;;39.50;;
3006;SDS011;1513;47.650;10.720;2023-03-03T17:45:19;128.13;;;41.77;;
3006;SDS011;1513;47.650;10.720;2023-03-03T17:55:57;146.97;;;50.80;;
3006;SDS011;1513;47.650;10.720;2023-03-03T18:09:28;139.67;;;46.67;;
3006;SDS011;1513;47.650;10.720;2023-03-03T18:12:17;126.33;;;41.50;;
3006;SDS011;1513;47.650;10.720;2023-03-03T18:18:01;118.80;;;38.50;;
3006;SDS011;1513;47.650;10.720;2023-03-03T18:25:57;123.03;;;37.13;;
3006;SDS011;1513;47.650;10.720;2023-03-03T18:31:22;104.23;;;35.37;;
3006;SDS011;1513;47.650;10.720;2023-03-03T18:34:01;104.43;;;34.97;;
3006;SDS011;1513;47.650;10.720;2023-03-03T18:36:53;120.47;;;39.00;;
3006;SDS011;1513;47.650;10.720;2023-03-03T18:42:08;107.43;;;36.83;;
3006;SDS011;1513;47.650;10.720;2023-03-03T18:44:44;112.83;;;35.67;;
3006;SDS011;1513;47.650;10.720;2023-03-03T18:47:13;120.47;;;40.00;;
3006;SDS011;1513;47.650;10.720;2023-03-03T18:52:39;109.83;;;35.83;;
3006;SDS011;1513;47.650;10.720;2023-03-03T18:55:29;110.70;;;36.47;;
3006;SDS011;1513;47.650;10.720;2023-03-03T19:00:41;113.93;;;35.23;;
3006;SDS011;1513;47.650;10.720;2023-03-03T19:03:27;106.10;;;35.60;;
3006;SDS011;1513;47.650;10.720;2023-03-03T19:05:58;119.77;;;34.77;;
3006;SDS011;1513;47.650;10.720;2023-03-03T19:09:09;125.00;;;38.00;;
3006;SDS011;1513;47.650;10.720;2023-03-03T19:11:32;117.40;;;34.13;;
3006;SDS011;1513;47.650;10.720;2023-03-03T19:16:57;123.07;;;37.13;;
3006;SDS011;1513;47.650;10.720;2023-03-03T19:25:31;109.87;;;38.70;;
3006;SDS011;1513;47.650;10.720;2023-03-03T19:50:14;119.77;;;36.57;;
3006;SDS011;1513;47.650;10.720;2023-03-03T19:58:14;113.13;;;36.73;;
3006;SDS011;1513;47.650;10.720;2023-03-03T20:01:04;112.77;;;37.10;;
3006;SDS011;1513;47.650;10.720;2023-03-03T20:04:14;124.23;;;37.07;;
3006;SDS011;1513;47.650;10.720;2023-03-03T20:07:03;119.57;;;35.33;;
3006;SDS011;1513;47.650;10.720;2023-03-03T20:09:57;110.20;;;36.50;;
3006;SDS011;1513;47.650;10.720;2023-03-03T20:18:20;119.70;;;36.50;;
3006;SDS011;1513;47.650;10.720;2023-03-03T20:23:58;103.70;;;34.03;;
3006;SDS011;1513;47.650;10.720;2023-03-03T20:26:30;115.33;;;34.40;;
3006;SDS011;1513;47.650;10.720;2023-03-03T20:32:10;128.43;;;36.87;;
3006;SDS011;1513;47.650;10.720;2023-03-03T20:43:07;118.77;;;37.43;;
3006;SDS011;1513;47.650;10.720;2023-03-03T20:51:04;113.83;;;35.67;;
3006;SDS011;1513;47.650;10.720;2023-03-03T20:59:00;116.53;;;33.70;;
3006;SDS011;1513;47.650;10.720;2023-03-03T21:04:27;121.13;;;33.70;;
3006;SDS011;1513;47.650;10.720;2023-03-03T21:06:55;94.57;;;32.90;;
3006;SDS011;1513;47.650;10.720;2023-03-03T21:12:00;105.43;;;31.93;;
3006;SDS011;1513;47.650;10.720;2023-03-03T21:14:58;121.63;;;33.47;;
3006;SDS011;1513;47.650;10.720;2023-03-03T21:17:26;120.90;;;32.37;;
3006;SDS011;1513;47.650;10.720;2023-03-03T21:19:54;118.60;;;34.27;;
3006;SDS011;1513;47.650;10.720;2023-03-03T21:22:27;127.13;;;33.03;;
3006;SDS011;1513;47.650;10.720;2023-03-03T21:24:56;124.20;;;31.57;;
3006;SDS011;1513;47.650;10.720;2023-03-03T21:27:26;153.00;;;31.63;;
3006;SDS011;1513;47.650;10.720;2023-03-03T21:30:27;149.97;;;34.97;;
3006;SDS011;1513;47.650;10.720;2023-03-03T21:32:47;187.83;;;35.67;;
3006;SDS011;1513;47.650;10.720;2023-03-03T21:35:16;133.27;;;34.40;;
3006;SDS011;1513;47.650;10.720;2023-03-03T21:37:47;153.70;;;33.50;;
3006;SDS011;1513;47.650;10.720;2023-03-03T21:40:16;141.77;;;34.20;;
3006;SDS011;1513;47.650;10.720;2023-03-03T21:42:49;124.57;;;32.70;;
3006;SDS011;1513;47.650;10.720;2023-03-03T21:45:25;123.50;;;33.20;;
3006;SDS011;1513;47.650;10.720;2023-03-03T21:47:52;117.13;;;32.00;;
3006;SDS011;1513;47.650;10.720;2023-03-03T21:50:22;102.03;;;31.30;;
3006;SDS011;1513;47.650;10.720;2023-03-03T21:52:50;113.83;;;30.87;;
3006;SDS011;1513;47.650;10.720;2023-03-03T21:55:16;112.37;;;32.00;;
3006;SDS011;1513;47.650;10.720;2023-03-03T21:57:42;186.37;;;33.93;;